Time;durP1;ratioP1;P1;durP2;ratioP2;P2;SDS_P1;SDS_P2;PMS_P1;PMS_P2;Temp;Humidity;BMP_temperature;BMP_pressure;BME280_temperature;BME280_humidity;BME280_pressure;Samples;Min_cycle;Max_cycle;Signal;HPM_P1;HPM_P2
2023/05/26 06:46:10;;;;;;;;;10.25;9.75;;;;;19.07;51.38;102239.19;5108677;27;45511;-73
2023/05/26 06:48:35;;;;;;;;;20.00;11.75;;;;;19.27;50.82;102236.13;5105765;27;45601;-74
2023/05/26 06:51:01;;;;;;;;;13.50;10.25;;;;;19.45;50.43;102244.75;5106878;27;45515;-76
2023/05/26 06:53:26;;;;;;;;;8.75;8.75;;;;;19.64;50.18;102244.38;5107796;27;48565;-74
2023/05/26 06:55:51;;;;;;;;;15.75;12.00;;;;;19.82;49.73;102236.00;5103073;27;45639;-75
2023/05/26 06:58:17;;;;;;;;;13.00;11.25;;;;;19.99;49.69;102246.47;5106765;27;45492;-74
2023/05/26 07:00:56;;;;;;;;;12.75;11.50;;;;;20.16;49.31;102243.53;5107041;27;45733;-74
2023/05/26 07:03:21;;;;;;;;;12.00;12.00;;;;;20.33;48.68;102239.63;5097070;27;45419;-74
2023/05/26 07:05:47;;;;;;;;;10.33;9.67;;;;;20.46;48.53;102235.09;5105148;27;45693;-73
2023/05/26 07:08:12;;;;;;;;;14.25;11.75;;;;;20.60;48.03;102244.00;5107315;27;45415;-74
2023/05/26 07:10:37;;;;;;;;;12.50;11.25;;;;;20.72;47.46;102243.09;5105627;27;50858;-74
2023/05/26 07:13:03;;;;;;;;;15.33;12.33;;;;;20.83;47.84;102249.53;5105325;27;46579;-74
2023/05/26 07:15:28;;;;;;;;;16.50;11.75;;;;;20.93;47.53;102240.66;5097552;27;46234;-73
2023/05/26 07:17:54;;;;;;;;;13.00;12.00;;;;;21.01;47.26;102236.53;5107897;27;50663;-74
2023/05/26 07:20:19;;;;;;;;;13.33;11.67;;;;;21.11;47.08;102242.97;5106639;27;45480;-74
2023/05/26 07:22:45;;;;;;;;;18.50;12.50;;;;;21.16;46.60;102240.78;5106674;27;45563;-77
2023/05/26 07:25:10;;;;;;;;;16.50;13.50;;;;;21.24;46.16;102247.41;5105223;27;60851;-77
2023/05/26 07:27:35;;;;;;;;;16.00;11.75;;;;;21.27;46.36;102241.78;5106403;27;45698;-79
2023/05/26 07:30:00;;;;;;;;;10.67;10.67;;;;;21.32;46.17;102243.19;5104390;27;53214;-75
2023/05/26 07:32:26;;;;;;;;;14.00;13.00;;;;;21.38;45.54;102247.22;5106423;27;45604;-75
2023/05/26 07:34:51;;;;;;;;;15.00;11.75;;;;;21.42;45.51;102243.31;5104830;27;46862;-75
2023/05/26 07:37:16;;;;;;;;;13.75;12.25;;;;;21.46;45.49;102242.09;5105694;27;45839;-74
2023/05/26 07:39:42;;;;;;;;;13.33;12.67;;;;;21.51;45.80;102243.59;5105354;27;45561;-77
2023/05/26 07:42:07;;;;;;;;;13.33;12.67;;;;;21.56;45.37;102247.66;5105480;27;46840;-76
2023/05/26 07:44:32;;;;;;;;;11.00;11.00;;;;;21.60;45.57;102240.19;5106049;27;47733;-75
2023/05/26 07:46:57;;;;;;;;;14.00;11.67;;;;;21.62;45.38;102242.78;5103785;27;54187;-74
2023/05/26 07:49:23;;;;;;;;;12.00;12.00;;;;;21.68;45.14;102239.56;5107149;27;45556;-75
2023/05/26 07:51:48;;;;;;;;;12.00;10.67;;;;;21.71;44.72;102250.16;5102585;27;46130;-75
2023/05/26 07:54:14;;;;;;;;;15.33;11.67;;;;;21.75;44.99;102237.28;5104707;27;45435;-75
2023/05/26 07:56:40;;;;;;;;;16.00;13.00;;;;;21.68;44.76;102235.03;5094742;27;45547;-76
2023/05/26 07:59:06;;;;;;;;;12.00;10.67;;;;;21.79;44.77;102241.47;5092461;27;45518;-74
2023/05/26 08:01:32;;;;;;;;;14.33;12.33;;;;;21.69;44.68;102223.25;5107638;27;45919;-74
2023/05/26 08:03:58;;;;;;;;;13.00;13.00;;;;;21.75;44.21;102229.19;5103879;27;47150;-74
2023/05/26 08:06:23;;;;;;;;;9.33;9.33;;;;;21.70;44.51;102233.06;5091762;27;45497;-74
2023/05/26 08:08:48;;;;;;;;;16.00;14.67;;;;;21.79;44.12;102230.66;5105637;27;45576;-74
2023/05/26 08:11:14;;;;;;;;;13.00;12.67;;;;;21.74;44.15;102231.00;5090782;27;45923;-74
2023/05/26 08:13:39;;;;;;;;;12.67;12.67;;;;;21.77;43.94;102233.50;5091004;27;45759;-74
2023/05/26 08:16:05;;;;;;;;;12.67;12.67;;;;;21.85;44.02;102246.41;5091804;27;45540;-75
2023/05/26 08:18:30;;;;;;;;;15.00;15.00;;;;;21.88;43.84;102245.28;5091114;27;45687;-74
2023/05/26 08:20:56;;;;;;;;;13.33;13.33;;;;;21.85;43.67;102241.88;5088422;27;45456;-76
2023/05/26 08:23:21;;;;;;;;;19.00;12.67;;;;;21.85;44.23;102231.06;5103357;27;46257;-77
2023/05/26 08:25:47;;;;;;;;;15.00;13.00;;;;;21.82;43.48;102227.72;5091287;27;45510;-75
2023/05/26 08:28:13;;;;;;;;;15.33;14.67;;;;;21.88;43.54;102227.25;5079536;27;45526;-74
2023/05/26 08:30:40;;;;;;;;;12.33;11.67;;;;;21.99;43.78;102250.72;5089203;27;45509;-74
2023/05/26 08:33:06;;;;;;;;;9.67;9.67;;;;;21.89;43.72;102228.97;5089702;27;46412;-74
2023/05/26 08:35:31;;;;;;;;;12.67;11.00;;;;;21.83;43.80;102221.34;5083355;27;45505;-74
2023/05/26 08:37:56;;;;;;;;;13.00;11.33;;;;;21.90;43.70;102232.53;5090698;27;45580;-75
2023/05/26 08:40:22;;;;;;;;;16.00;13.00;;;;;21.94;43.47;102240.25;5088263;27;45792;-76
2023/05/26 08:42:51;;;;;;;;;15.00;15.00;;;;;21.96;43.49;102237.44;5089031;27;45862;-76
2023/05/26 08:45:17;;;;;;;;;14.67;12.67;;;;;21.87;43.37;102213.84;5088555;27;45545;-76
2023/05/26 08:47:47;;;;;;;;;14.67;13.00;;;;;22.05;43.53;102243.94;5091689;27;45538;-77
2023/05/26 08:50:15;;;;;;;;;15.00;11.33;;;;;22.07;43.31;102248.25;5090027;27;45628;-78
2023/05/26 08:52:42;;;;;;;;;12.33;12.33;;;;;22.13;43.45;102246.91;5089175;27;45555;-78
2023/05/26 08:55:08;;;;;;;;;15.00;13.33;;;;;22.04;43.33;102229.59;5086841;27;45596;-78
2023/05/26 08:57:34;;;;;;;;;16.67;13.33;;;;;22.16;43.26;102238.56;5091346;27;45677;-77
2023/05/26 08:59:59;;;;;;;;;15.00;10.67;;;;;22.03;43.32;102229.72;5087976;27;45473;-76
2023/05/26 09:02:26;;;;;;;;;15.33;15.33;;;;;22.04;43.28;102229.59;5086736;27;45516;-78
2023/05/26 09:04:51;;;;;;;;;16.33;14.00;;;;;21.98;43.48;102212.00;5086365;27;45553;-76
2023/05/26 09:07:18;;;;;;;;;11.00;11.00;;;;;22.05;43.33;102225.91;5090087;27;45391;-76
2023/05/26 09:09:44;;;;;;;;;14.00;14.00;;;;;22.04;43.56;102218.78;5082300;27;45607;-74
2023/05/26 09:12:11;;;;;;;;;14.00;11.33;;;;;22.09;43.75;102218.41;5080781;27;45496;-75
2023/05/26 09:14:38;;;;;;;;;17.00;13.67;;;;;22.11;43.65;102221.81;5086879;27;45975;-73
2023/05/26 09:17:04;;;;;;;;;16.50;15.50;;;;;22.12;43.29;102218.16;5087041;27;45764;-74
2023/05/26 09:19:31;;;;;;;;;14.67;12.67;;;;;22.18;43.06;102233.88;5089615;27;45685;-74
2023/05/26 09:22:05;;;;;;;;;13.33;13.33;;;;;22.21;43.34;102230.06;5090234;27;46563;-73
2023/05/26 09:24:42;;;;;;;;;14.33;14.33;;;;;22.20;43.22;102239.16;5088592;27;45574;-73
2023/05/26 09:27:16;;;;;;;;;17.67;14.67;;;;;22.14;42.80;102218.88;5090024;27;45580;-74
2023/05/26 09:29:50;;;;;;;;;12.33;12.33;;;;;22.14;42.94;102218.88;5090828;27;45538;-73
2023/05/26 09:32:15;;;;;;;;;13.33;11.33;;;;;22.14;43.15;102218.03;5082550;27;45863;-75
2023/05/26 09:34:41;;;;;;;;;13.00;11.00;;;;;22.18;42.96;102222.19;5084081;27;45529;-77
2023/05/26 09:37:08;;;;;;;;;10.67;10.33;;;;;22.09;43.51;102213.00;5083606;27;45487;-78
2023/05/26 09:39:34;;;;;;;;;13.67;11.00;;;;;22.11;43.27;102214.59;5090998;27;45492;-75
2023/05/26 09:42:06;;;;;;;;;15.33;13.67;;;;;22.15;43.61;102219.75;5091018;27;46808;-75
2023/05/26 09:44:31;;;;;;;;;17.33;13.67;;;;;22.21;43.43;102227.38;5089400;27;45524;-77
2023/05/26 09:46:57;;;;;;;;;12.67;12.67;;;;;22.16;43.00;102207.94;5089441;27;45589;-78
2023/05/26 09:49:22;;;;;;;;;14.67;13.33;;;;;22.30;42.86;102232.03;5083331;27;45428;-77
2023/05/26 09:51:50;;;;;;;;;16.33;13.33;;;;;22.20;43.42;102218.38;5088584;27;45842;-76
2023/05/26 09:54:16;;;;;;;;;14.00;12.75;;;;;22.24;43.18;102222.56;5084898;27;45683;-75
2023/05/26 09:56:52;;;;;;;;;14.50;13.75;;;;;22.33;43.16;102228.22;5089269;27;45575;-75
2023/05/26 09:59:20;;;;;;;;;12.67;12.67;;;;;22.29;42.85;102224.91;5086772;27;45570;-78
2023/05/26 10:01:46;;;;;;;;;14.00;13.00;;;;;22.29;43.16;102222.19;5090173;27;46024;-78
2023/05/26 10:04:15;;;;;;;;;16.25;13.50;;;;;22.31;43.12;102222.94;5077573;27;45832;-78
2023/05/26 10:06:41;;;;;;;;;12.00;9.67;;;;;22.36;43.21;102234.22;5088813;27;45531;-75
2023/05/26 10:09:07;;;;;;;;;14.33;12.33;;;;;22.31;42.72;102225.63;5089958;27;45807;-80
2023/05/26 10:11:39;;;;;;;;;14.50;14.50;;;;;22.24;42.98;102211.75;5086418;27;45535;-77
2023/05/26 10:14:05;;;;;;;;;16.25;14.75;;;;;22.36;43.02;102222.56;5090270;27;45944;-78
2023/05/26 10:16:32;;;;;;;;;15.67;14.67;;;;;22.34;43.06;102217.28;5088986;27;45635;-77
2023/05/26 10:18:58;;;;;;;;;16.00;15.33;;;;;22.35;43.03;102223.53;5088680;27;45689;-76
2023/05/26 10:21:31;;;;;;;;;17.00;16.00;;;;;22.40;43.11;102224.00;5089384;27;46221;-76
2023/05/26 10:24:23;;;;;;;;;13.00;12.00;;;;;22.34;43.44;102211.00;5088169;27;45523;-75
2023/05/26 10:27:02;;;;;;;;;16.00;14.33;;;;;22.29;43.70;102197.00;5087838;27;45964;-75
2023/05/26 10:29:37;;;;;;;;;13.00;13.00;;;;;22.45;43.36;102219.13;5089480;27;45495;-75
2023/05/26 10:32:03;;;;;;;;;10.33;8.67;;;;;22.49;43.34;102225.97;5104375;27;46205;-75
2023/05/26 10:34:40;;;;;;;;;14.00;12.33;;;;;22.54;43.46;102216.66;5088410;27;46293;-80
2023/05/26 10:37:13;;;;;;;;;16.33;13.00;;;;;22.41;43.88;102196.00;5084135;27;45473;-77
2023/05/26 10:39:40;;;;;;;;;12.67;11.00;;;;;22.46;43.57;102195.59;5085910;27;45524;-76
2023/05/26 10:42:17;;;;;;;;;13.67;13.00;;;;;22.49;43.77;102200.78;5091314;27;47414;-76
2023/05/26 10:44:45;;;;;;;;;13.00;13.00;;;;;22.59;44.14;102209.00;5090462;27;45505;-76
2023/05/26 10:47:15;;;;;;;;;15.33;13.67;;;;;22.66;42.99;102210.25;5087795;27;45492;-76
2023/05/26 10:49:40;;;;;;;;;12.33;11.67;;;;;22.55;42.94;102196.72;5091223;27;45366;-75
2023/05/26 10:52:13;;;;;;;;;14.33;14.33;;;;;22.56;42.75;102190.34;5090744;27;46092;-75
2023/05/26 10:54:39;;;;;;;;;14.67;13.00;;;;;22.53;42.86;102196.84;5086589;27;45497;-75
2023/05/26 10:57:06;;;;;;;;;15.33;13.33;;;;;22.63;42.68;102202.34;5089587;27;45445;-74
2023/05/26 10:59:33;;;;;;;;;15.67;12.33;;;;;22.52;43.37;102186.97;5078533;27;45720;-77
2023/05/26 11:02:07;;;;;;;;;13.33;12.00;;;;;22.58;42.82;102189.22;5091796;27;46411;-82
2023/05/26 11:04:46;;;;;;;;;17.00;14.00;;;;;22.55;43.01;102188.59;5089196;27;45812;-79
2023/05/26 11:07:23;;;;;;;;;10.67;10.67;;;;;22.65;42.87;102197.69;5090267;27;45429;-76
2023/05/26 11:10:06;;;;;;;;;15.67;13.67;;;;;22.60;42.66;102191.81;5090821;27;45429;-77
2023/05/26 11:12:36;;;;;;;;;15.00;13.00;;;;;22.64;43.07;102190.53;5080323;27;46072;-77
2023/05/26 11:15:28;;;;;;;;;17.33;12.00;;;;;22.68;42.71;102188.47;5083652;27;45356;-77
2023/05/26 11:18:05;;;;;;;;;16.00;14.33;;;;;22.55;42.67;102173.22;5084339;27;45576;-78
2023/05/26 11:20:32;;;;;;;;;12.00;12.00;;;;;22.57;42.76;102173.13;5088744;27;45662;-78
2023/05/26 11:22:58;;;;;;;;;12.33;12.33;;;;;22.58;43.08;102174.81;5083639;27;46160;-77
2023/05/26 11:25:25;;;;;;;;;13.00;13.00;;;;;22.58;42.84;102173.00;5086822;27;45697;-75
2023/05/26 11:27:51;;;;;;;;;15.33;13.33;;;;;22.58;43.12;102180.25;5087724;27;45576;-77
2023/05/26 11:30:18;;;;;;;;;12.33;11.33;;;;;22.57;42.89;102175.81;5082873;27;45520;-79
